createdAt,value
2022-12-14T00:02:53.897Z,79.98
2022-12-14T00:05:55.819Z,80.01
2022-12-14T00:09:00.192Z,79.76
2022-12-14T00:12:02.025Z,80.25
2022-12-14T00:15:04.669Z,78.04
2022-12-14T00:18:06.529Z,78.46
2022-12-14T00:21:13.740Z,80.92
2022-12-14T00:24:15.599Z,81.77
2022-12-14T00:27:17.571Z,80.64
2022-12-14T00:30:20.579Z,80.20
2022-12-14T00:33:22.400Z,79.17
2022-12-14T00:36:24.562Z,80.13
2022-12-14T00:39:26.349Z,80.16
2022-12-14T00:42:28.055Z,78.40
2022-12-14T00:45:29.880Z,79.35
2022-12-14T00:48:32.206Z,81.08
2022-12-14T00:51:34.311Z,79.66
2022-12-14T00:54:36.147Z,80.52
2022-12-14T00:57:38.029Z,79.82
2022-12-14T01:00:40.505Z,79.57
2022-12-14T01:03:42.847Z,80.07
2022-12-14T01:06:46.063Z,80.43
2022-12-14T01:09:48.335Z,79.53
2022-12-14T01:12:50.288Z,80.52
2022-12-14T01:15:55.440Z,80.28
2022-12-14T01:18:57.309Z,80.90
2022-12-14T01:21:59.989Z,81.04
2022-12-14T01:25:02.041Z,80.59
2022-12-14T01:28:03.880Z,81.02
2022-12-14T01:31:11.642Z,82.63
2022-12-14T01:34:13.642Z,82.30
2022-12-14T01:37:16.128Z,82.34
2022-12-14T01:40:18.083Z,80.41
2022-12-14T01:43:19.907Z,79.88
2022-12-14T01:46:35.364Z,79.52
2022-12-14T01:49:44.420Z,80.12
2022-12-14T01:52:50.352Z,79.99
2022-12-14T01:55:54.367Z,79.99
2022-12-14T01:58:57.801Z,81.42
2022-12-14T02:02:06.009Z,83.30
2022-12-14T02:05:09.829Z,81.80
2022-12-14T02:08:12.263Z,81.48
2022-12-14T02:11:14.633Z,80.31
2022-12-14T02:14:16.675Z,80.90
2022-12-14T02:17:19.679Z,80.71
2022-12-14T02:20:22.823Z,80.35
2022-12-14T02:23:49.015Z,81.63
2022-12-14T02:27:15.832Z,81.38
2022-12-14T02:30:23.045Z,82.66
2022-12-14T02:33:51.055Z,83.57
2022-12-14T02:37:11.831Z,83.86
2022-12-14T02:40:19.806Z,83.19
2022-12-14T02:43:30.273Z,82.00
2022-12-14T02:46:53.723Z,82.29
2022-12-14T02:50:22.505Z,83.16
2022-12-14T02:53:43.374Z,82.80
2022-12-14T02:56:48.988Z,82.80
2022-12-14T02:59:54.156Z,83.17
2022-12-14T03:02:56.253Z,82.96
2022-12-14T03:06:02.270Z,83.49
2022-12-14T03:09:11.803Z,82.97
2022-12-14T03:12:15.967Z,82.41
2022-12-14T03:15:18.718Z,83.83
2022-12-14T03:18:24.183Z,82.96
2022-12-14T03:21:30.030Z,84.27
2022-12-14T03:24:43.381Z,83.46
2022-12-14T03:27:51.005Z,84.78
2022-12-14T03:31:03.194Z,85.54
2022-12-14T03:34:13.226Z,85.13
2022-12-14T03:37:32.931Z,86.39
2022-12-14T03:40:39.224Z,86.52
2022-12-14T03:43:49.763Z,85.40
2022-12-14T03:47:05.111Z,87.38
2022-12-14T03:50:12.578Z,86.88
2022-12-14T03:53:22.945Z,86.55
2022-12-14T03:57:08.735Z,86.99
2022-12-14T04:00:17.345Z,87.08
2022-12-14T04:03:44.262Z,86.56
2022-12-14T04:06:48.950Z,87.26
2022-12-14T04:10:32.335Z,87.14
2022-12-14T04:13:59.012Z,87.61
2022-12-14T04:17:21.294Z,88.55
2022-12-14T04:20:28.318Z,88.15
2022-12-14T04:23:53.113Z,88.26
2022-12-14T04:27:15.489Z,87.58
2022-12-14T04:30:17.870Z,88.04
2022-12-14T04:33:38.312Z,87.97
2022-12-14T04:36:44.994Z,87.97
2022-12-14T04:39:59.579Z,88.99
2022-12-14T04:43:08.547Z,88.54
2022-12-14T04:46:18.855Z,88.91
2022-12-14T04:49:26.292Z,88.94
2022-12-14T04:52:40.073Z,89.28
2022-12-14T04:56:24.400Z,89.21
2022-12-14T04:59:26.784Z,89.38
2022-12-14T05:02:43.789Z,88.29
2022-12-14T05:05:57.190Z,88.22
2022-12-14T05:09:07.584Z,88.36
2022-12-14T05:12:18.307Z,88.79
2022-12-14T05:15:23.763Z,89.11
2022-12-14T05:18:25.822Z,87.98
2022-12-14T05:21:46.345Z,89.33
2022-12-14T05:24:48.391Z,88.54
2022-12-14T05:27:50.686Z,88.21
2022-12-14T05:30:52.495Z,88.41
2022-12-14T05:33:55.261Z,88.11
2022-12-14T05:36:58.426Z,88.28
2022-12-14T05:40:00.290Z,88.89
2022-12-14T05:43:06.713Z,88.45
2022-12-14T05:46:11.690Z,88.20
2022-12-14T05:49:13.692Z,88.42
2022-12-14T05:52:15.975Z,87.00
2022-12-14T05:55:18.438Z,87.20
2022-12-14T05:58:20.410Z,86.60
2022-12-14T06:01:22.350Z,85.49
2022-12-14T06:04:25.207Z,85.56
2022-12-14T06:07:28.179Z,85.04
2022-12-14T06:10:30.507Z,86.20
2022-12-14T06:13:32.431Z,86.57
2022-12-14T06:16:35.191Z,86.12
2022-12-14T06:19:37.083Z,84.95
2022-12-14T06:22:44.194Z,84.69
2022-12-14T06:25:56.161Z,84.64
2022-12-14T06:28:58.335Z,84.60
2022-12-14T06:32:01.508Z,83.42
2022-12-14T06:35:04.065Z,83.46
2022-12-14T06:38:05.977Z,82.59
2022-12-14T06:41:10.274Z,83.30
2022-12-14T06:44:13.705Z,83.09
2022-12-14T06:47:15.847Z,82.26
2022-12-14T06:50:17.737Z,82.48
2022-12-14T06:53:19.689Z,81.58
2022-12-14T06:56:23.126Z,81.62
2022-12-14T06:59:25.157Z,81.31
2022-12-14T07:02:27.203Z,80.74
2022-12-14T07:05:29.230Z,80.35
2022-12-14T07:08:33.005Z,79.75
2022-12-14T07:11:34.951Z,79.96
2022-12-14T07:14:36.963Z,80.87
2022-12-14T07:17:39.230Z,79.62
2022-12-14T07:20:41.292Z,79.14
2022-12-14T07:23:44.566Z,78.66
2022-12-14T07:26:46.872Z,78.89
2022-12-14T07:29:48.995Z,78.89
2022-12-14T07:32:51.275Z,78.74
2022-12-14T07:35:53.327Z,77.85
2022-12-14T07:38:56.164Z,78.39
2022-12-14T07:41:58.363Z,77.87
2022-12-14T07:45:01.379Z,77.65
2022-12-14T07:48:03.456Z,76.72
2022-12-14T07:51:07.906Z,77.01
2022-12-14T07:54:11.070Z,77.67
2022-12-14T07:57:13.235Z,77.03
2022-12-14T08:00:15.259Z,77.12
2022-12-14T08:03:17.465Z,77.25
2022-12-14T08:06:20.697Z,78.59
2022-12-14T08:09:22.701Z,80.53
2022-12-14T08:12:24.826Z,81.14
2022-12-14T08:15:26.716Z,81.35
2022-12-14T08:18:29.064Z,82.21
2022-12-14T08:21:31.309Z,82.05
2022-12-14T08:24:33.424Z,81.33
2022-12-14T08:27:35.328Z,81.19
2022-12-14T08:30:40.946Z,81.39
2022-12-14T08:33:44.131Z,81.79
2022-12-14T08:36:47.319Z,82.36
2022-12-14T08:39:49.664Z,80.13
2022-12-14T08:42:51.575Z,79.42
2022-12-14T08:45:55.724Z,79.30
2022-12-14T08:48:59.072Z,78.20
2022-12-14T08:52:01.594Z,79.99
2022-12-14T08:55:03.927Z,79.40
2022-12-14T08:58:05.853Z,77.86
2022-12-14T09:01:13.523Z,79.88
2022-12-14T09:04:15.754Z,79.64
2022-12-14T09:07:17.671Z,78.86
2022-12-14T09:10:22.118Z,78.16
2022-12-14T09:13:24.300Z,77.88
2022-12-14T09:16:26.604Z,76.21
2022-12-14T09:19:29.147Z,76.78
2022-12-14T09:22:31.317Z,75.72
2022-12-14T09:25:33.715Z,75.71
2022-12-14T09:28:41.710Z,75.37
2022-12-14T09:31:44.284Z,75.41
2022-12-14T09:34:46.254Z,74.14
2022-12-14T09:37:48.228Z,73.67
2022-12-14T09:41:05.993Z,74.64
2022-12-14T09:44:37.397Z,73.89
2022-12-14T09:47:49.993Z,74.33
2022-12-14T09:50:52.850Z,72.80
2022-12-14T09:54:03.000Z,73.66
2022-12-14T09:57:12.002Z,73.48
2022-12-14T10:00:19.344Z,73.57
2022-12-14T10:03:27.671Z,73.94
2022-12-14T10:06:35.197Z,72.48
2022-12-14T10:09:40.339Z,73.02
2022-12-14T10:13:14.549Z,74.79
2022-12-14T10:16:28.180Z,73.52
2022-12-14T10:19:44.595Z,73.09
2022-12-14T10:22:49.916Z,72.55
2022-12-14T10:25:54.647Z,72.95
2022-12-14T10:29:02.525Z,72.41
2022-12-14T10:32:08.272Z,71.46
2022-12-14T10:35:14.970Z,71.67
2022-12-14T10:38:59.785Z,72.02
2022-12-14T10:42:20.467Z,71.49
2022-12-14T10:45:52.088Z,72.14
2022-12-14T10:49:14.383Z,75.19
2022-12-14T10:52:19.586Z,74.97
2022-12-14T10:55:26.120Z,75.82
2022-12-14T10:58:28.617Z,74.16
2022-12-14T11:01:30.871Z,72.92
2022-12-14T11:04:56.223Z,72.76
2022-12-14T11:07:58.342Z,71.27
2022-12-14T11:11:19.410Z,71.48
2022-12-14T11:14:22.920Z,71.63
2022-12-14T11:17:41.460Z,71.53
2022-12-14T11:20:59.646Z,71.05
2022-12-14T11:24:02.699Z,71.62
2022-12-14T11:27:06.493Z,71.31
2022-12-14T11:30:16.763Z,70.48
2022-12-14T11:33:18.821Z,70.71
2022-12-14T11:36:32.736Z,70.03
2022-12-14T11:39:40.330Z,70.50
2022-12-14T11:42:48.391Z,70.25
2022-12-14T11:45:51.621Z,69.74
2022-12-14T11:48:53.725Z,69.37
2022-12-14T11:52:00.024Z,70.45
2022-12-14T11:55:02.007Z,70.08
2022-12-14T11:58:04.230Z,69.31
2022-12-14T12:01:12.392Z,68.46
2022-12-14T12:04:15.874Z,69.20
2022-12-14T12:07:30.849Z,68.63
2022-12-14T12:10:50.284Z,69.35
2022-12-14T12:14:11.244Z,68.33
2022-12-14T12:17:37.369Z,68.41
2022-12-14T12:20:43.413Z,68.00
2022-12-14T12:24:18.093Z,68.05
2022-12-14T12:27:20.887Z,67.77
2022-12-14T12:30:28.717Z,68.04
2022-12-14T12:33:54.848Z,68.22
2022-12-14T12:37:25.402Z,68.02
2022-12-14T12:40:33.161Z,67.77
2022-12-14T12:43:42.533Z,67.39
2022-12-14T12:47:26.048Z,68.31
2022-12-14T12:50:32.787Z,68.21
2022-12-14T12:53:50.027Z,68.03
2022-12-14T12:56:54.037Z,68.82
2022-12-14T12:59:57.729Z,68.11
2022-12-14T13:03:17.960Z,68.24
2022-12-14T13:06:36.169Z,67.91
2022-12-14T13:09:45.184Z,68.81
2022-12-14T13:13:01.702Z,68.25
2022-12-14T13:16:13.457Z,67.79
2022-12-14T13:19:50.634Z,68.14
2022-12-14T13:22:54.200Z,68.13
2022-12-14T13:26:56.644Z,67.33
2022-12-14T13:30:06.449Z,68.48
2022-12-14T13:33:13.606Z,68.51
2022-12-14T13:36:21.636Z,68.08
2022-12-14T13:39:26.796Z,69.03
2022-12-14T13:42:59.793Z,68.06
2022-12-14T13:46:07.857Z,68.60
2022-12-14T13:49:19.938Z,69.19
2022-12-14T13:52:32.354Z,69.17
2022-12-14T13:56:00.724Z,69.27
2022-12-14T13:59:06.330Z,69.63
2022-12-14T14:02:30.495Z,68.81
2022-12-14T14:05:35.765Z,69.32
2022-12-14T14:08:51.795Z,69.89
2022-12-14T14:12:05.272Z,69.66
2022-12-14T14:15:27.822Z,70.68
2022-12-14T14:19:08.491Z,70.31
2022-12-14T14:22:26.579Z,70.74
2022-12-14T14:25:34.648Z,71.07
2022-12-14T14:28:38.495Z,70.85
2022-12-14T14:31:48.481Z,71.68
2022-12-14T14:34:51.435Z,71.30
2022-12-14T14:38:25.819Z,72.01
2022-12-14T14:41:51.157Z,72.39
2022-12-14T14:44:59.500Z,72.22
2022-12-14T14:48:08.794Z,72.28
2022-12-14T14:51:11.093Z,73.26
2022-12-14T14:58:05.168Z,73.56
2022-12-14T15:01:10.341Z,73.70
2022-12-14T15:04:23.953Z,74.11
2022-12-14T15:07:29.835Z,74.44
2022-12-14T15:10:37.660Z,74.23
2022-12-14T15:14:04.671Z,74.68
2022-12-14T15:17:13.790Z,74.50
2022-12-14T15:20:34.698Z,75.18
2022-12-14T15:23:40.050Z,75.32
2022-12-14T15:26:42.425Z,75.21
2022-12-14T15:29:46.916Z,75.70
2022-12-14T15:32:59.065Z,75.41
2022-12-14T15:36:20.296Z,74.99
2022-12-14T15:39:38.701Z,75.11
2022-12-14T15:42:47.835Z,75.93
2022-12-14T15:45:55.994Z,75.57
2022-12-14T15:49:00.577Z,75.68
2022-12-14T15:52:03.351Z,76.25
2022-12-14T15:55:06.610Z,75.75
2022-12-14T15:58:17.815Z,75.91
2022-12-14T16:01:28.297Z,76.78
2022-12-14T16:04:32.424Z,76.60
2022-12-14T16:07:55.343Z,76.46
2022-12-14T16:11:00.974Z,77.06
2022-12-14T16:14:17.813Z,77.02
2022-12-14T16:17:32.680Z,78.18
2022-12-14T16:20:37.275Z,78.82
2022-12-14T16:23:45.235Z,77.40
2022-12-14T16:26:56.296Z,78.33
2022-12-14T16:30:17.972Z,77.54
2022-12-14T16:33:21.434Z,78.25
2022-12-14T16:36:25.791Z,78.62
2022-12-14T16:39:34.704Z,79.07
2022-12-14T16:42:37.010Z,80.05
2022-12-14T16:45:42.462Z,81.76
2022-12-14T16:49:09.840Z,82.51
2022-12-14T16:52:33.782Z,84.53
2022-12-14T16:56:06.580Z,84.64
2022-12-14T16:59:32.255Z,86.10
2022-12-14T17:02:38.668Z,85.77
2022-12-14T17:05:41.978Z,87.09
2022-12-14T17:08:44.720Z,87.93
2022-12-14T17:11:47.332Z,90.73
2022-12-14T17:14:50.174Z,91.37
2022-12-14T17:17:54.329Z,92.07
2022-12-14T17:20:57.013Z,92.31
2022-12-14T17:23:59.693Z,92.35
2022-12-14T17:27:02.076Z,92.25
2022-12-14T17:30:06.292Z,90.78
2022-12-14T17:33:09.481Z,89.82
2022-12-14T17:36:11.954Z,89.81
2022-12-14T17:39:14.034Z,89.87
2022-12-14T17:42:18.333Z,89.04
2022-12-14T17:45:28.737Z,87.55
2022-12-14T17:48:31.309Z,84.82
2022-12-14T17:51:41.334Z,84.20
2022-12-14T17:54:44.043Z,83.19
2022-12-14T17:57:46.828Z,82.88
2022-12-14T18:01:01.648Z,81.88
2022-12-14T18:04:03.983Z,80.91
2022-12-14T18:07:06.974Z,80.57
2022-12-14T18:10:10.006Z,81.05
2022-12-14T18:13:13.507Z,81.16
2022-12-14T18:16:18.154Z,81.37
2022-12-14T18:19:20.759Z,81.88
2022-12-14T18:22:23.340Z,81.53
2022-12-14T18:25:48.051Z,81.95
2022-12-14T18:28:53.107Z,82.36
2022-12-14T18:31:55.593Z,82.36
2022-12-14T18:35:00.531Z,83.16
2022-12-14T18:38:02.514Z,83.40
2022-12-14T18:41:05.713Z,83.92
2022-12-14T18:44:08.814Z,85.32
2022-12-14T18:47:40.057Z,85.96
2022-12-14T18:50:36.178Z,85.81
2022-12-14T18:53:42.995Z,86.25
2022-12-14T18:56:45.656Z,86.91
2022-12-14T18:59:51.720Z,86.17
2022-12-14T19:02:57.680Z,85.68
2022-12-14T19:06:42.057Z,87.07
2022-12-14T19:09:32.853Z,86.79
2022-12-14T19:12:58.509Z,88.08
2022-12-14T19:16:01.331Z,86.71
2022-12-14T19:19:03.966Z,88.18
2022-12-14T19:22:19.983Z,89.34
2022-12-14T19:25:23.356Z,88.05
2022-12-14T19:28:32.327Z,88.55
2022-12-14T19:31:34.947Z,88.21
2022-12-14T19:34:39.690Z,90.85
2022-12-14T19:37:42.166Z,89.31
2022-12-14T19:40:46.940Z,91.46
2022-12-14T19:43:49.057Z,91.01
2022-12-14T19:46:51.398Z,90.72
2022-12-14T19:49:53.702Z,90.31
2022-12-14T19:52:55.779Z,90.00
2022-12-14T19:55:57.968Z,89.74
2022-12-14T19:59:03.837Z,89.40
2022-12-14T20:02:07.045Z,90.88
2022-12-14T20:05:09.557Z,89.90
2022-12-14T20:08:12.480Z,89.95
2022-12-14T20:11:15.326Z,89.63
2022-12-14T20:14:18.738Z,89.59
2022-12-14T20:17:21.579Z,89.64
2022-12-14T20:20:24.382Z,88.33
2022-12-14T20:23:26.803Z,87.88
2022-12-14T20:26:30.202Z,87.89
2022-12-14T20:29:32.644Z,88.28
2022-12-14T20:32:34.852Z,89.35
2022-12-14T20:35:37.470Z,90.15
2022-12-14T20:38:40.564Z,91.60
2022-12-14T20:41:44.122Z,91.86
2022-12-14T20:44:50.638Z,93.11
2022-12-14T20:47:56.465Z,94.39
2022-12-14T20:51:03.976Z,96.07
2022-12-14T20:54:20.375Z,96.91
2022-12-14T20:57:28.952Z,94.98
2022-12-14T21:00:32.583Z,97.49
2022-12-14T21:03:42.496Z,97.42
2022-12-14T21:06:45.533Z,96.38
2022-12-14T21:09:55.578Z,96.83
2022-12-14T21:13:07.870Z,97.27
2022-12-14T21:16:10.448Z,98.48
2022-12-14T21:19:14.109Z,98.44
2022-12-14T21:22:21.147Z,99.46
2022-12-14T21:25:24.452Z,99.56
2022-12-14T21:28:31.991Z,99.14
2022-12-14T21:31:38.477Z,99.39
2022-12-14T21:34:41.945Z,100.00
2022-12-14T21:37:47.134Z,100.00
2022-12-14T21:41:14.554Z,100.00
2022-12-14T21:44:17.613Z,100.00
2022-12-14T21:47:28.393Z,100.00
2022-12-14T21:50:30.901Z,99.81
2022-12-14T21:54:01.716Z,98.94
2022-12-14T21:57:23.683Z,97.47
2022-12-14T22:00:35.005Z,97.55
2022-12-14T22:03:39.732Z,95.55
2022-12-14T22:06:44.594Z,95.91
2022-12-14T22:09:49.513Z,94.22
2022-12-14T22:12:58.542Z,93.75
2022-12-14T22:16:08.250Z,92.88
2022-12-14T22:19:18.731Z,90.99
2022-12-14T22:22:24.665Z,91.37
2022-12-14T22:25:27.272Z,91.61
2022-12-14T22:28:30.186Z,90.71
2022-12-14T22:31:38.306Z,90.89
2022-12-14T22:34:43.693Z,90.14
2022-12-14T22:37:46.059Z,89.51
2022-12-14T22:41:08.066Z,89.78
2022-12-14T22:44:16.166Z,89.92
2022-12-14T22:47:26.330Z,91.02
2022-12-14T22:50:38.052Z,90.42
2022-12-14T22:53:43.565Z,90.28
2022-12-14T22:57:06.813Z,90.95
2022-12-14T23:00:20.844Z,90.73
2022-12-14T23:03:26.412Z,90.07
2022-12-14T23:06:37.522Z,89.99
2022-12-14T23:09:58.517Z,89.19
2022-12-14T23:13:24.238Z,89.63
2022-12-14T23:16:50.187Z,89.72
2022-12-14T23:20:17.772Z,89.99
2022-12-14T23:23:42.715Z,89.45
2022-12-14T23:27:09.105Z,90.00
2022-12-14T23:30:33.894Z,90.92
2022-12-14T23:33:55.383Z,89.65
2022-12-14T23:37:20.178Z,90.05
2022-12-14T23:40:44.837Z,89.61
2022-12-14T23:44:06.381Z,89.88
2022-12-14T23:47:30.191Z,89.52
2022-12-14T23:50:56.443Z,89.65
2022-12-14T23:54:21.256Z,89.80
2022-12-14T23:57:45.790Z,90.15
